Time;durP1;ratioP1;P1;durP2;ratioP2;P2;SDS_P1;SDS_P2;PMS_P1;PMS_P2;Temp;Humidity;BMP_temperature;BMP_pressure;BME280_temperature;BME280_humidity;BME280_pressure;Samples;Min_cycle;Max_cycle;Signal;HPM_P1;HPM_P2
2024/02/06 00:02:59;;;;;;;2.28;1.38;;;;;;;8.10;96.44;99757.84;6295860;28;20051;-81
2024/02/06 00:05:59;;;;;;;7.72;1.70;;;;;;;8.21;96.85;99755.47;6298708;28;20051;-85
2024/02/06 00:09:01;;;;;;;2.05;1.30;;;;;;;8.08;97.08;99760.50;6315945;28;20067;-86
2024/02/06 00:12:02;;;;;;;5.82;2.00;;;;;;;8.19;96.89;99756.47;6321153;28;20052;-87
2024/02/06 00:15:03;;;;;;;3.08;1.30;;;;;;;8.03;96.84;99752.16;6300722;28;20458;-86
2024/02/06 00:18:04;;;;;;;6.45;1.42;;;;;;;8.08;96.98;99757.91;6295710;28;20115;-87
2024/02/06 00:21:05;;;;;;;2.28;1.23;;;;;;;8.10;96.66;99749.22;6280077;28;20095;-80
2024/02/06 00:24:06;;;;;;;3.08;1.38;;;;;;;8.02;96.51;99757.41;6292786;28;20067;-81
2024/02/06 00:27:06;;;;;;;6.43;2.05;;;;;;;8.01;96.39;99754.00;6295734;28;20090;-81
2024/02/06 00:30:08;;;;;;;1.95;1.33;;;;;;;7.94;96.18;99747.44;6300811;28;20045;-85
2024/02/06 00:33:08;;;;;;;2.00;1.38;;;;;;;7.98;96.36;99740.31;6300671;28;20052;-87
2024/02/06 00:36:09;;;;;;;2.72;1.38;;;;;;;7.96;97.27;99740.41;6288659;28;20419;-85
2024/02/06 00:39:10;;;;;;;1.90;1.35;;;;;;;7.93;97.11;99738.00;6321198;28;20134;-84
2024/02/06 00:42:11;;;;;;;7.80;1.45;;;;;;;8.00;96.46;99739.31;6298547;28;20609;-81
2024/02/06 00:45:12;;;;;;;6.80;1.52;;;;;;;8.04;96.46;99727.81;6321027;28;20419;-80
2024/02/06 00:48:13;;;;;;;3.67;1.70;;;;;;;7.96;96.71;99734.38;6320598;28;20048;-81
2024/02/06 00:51:34;;;;;;;2.95;1.52;;;;;;;7.96;96.48;99740.41;6298408;28;20484;-81
2024/02/06 00:54:35;;;;;;;4.72;1.75;;;;;;;7.95;96.26;99728.34;6291037;28;20476;-81
2024/02/06 00:57:36;;;;;;;7.80;2.25;;;;;;;7.96;96.46;99743.00;6293621;28;20041;-80
2024/02/06 01:00:36;;;;;;;3.38;1.80;;;;;;;7.95;96.49;99750.88;6297075;28;20404;-81
2024/02/06 01:03:38;;;;;;;6.45;1.63;;;;;;;7.99;96.76;99741.97;6290078;28;20070;-80
2024/02/06 01:06:41;;;;;;;5.55;1.48;;;;;;;7.99;96.18;99745.44;6313398;28;20054;-81
2024/02/06 01:09:43;;;;;;;11.43;2.25;;;;;;;7.85;97.06;99738.41;6313074;28;20044;-84
2024/02/06 01:12:43;;;;;;;3.20;1.52;;;;;;;7.88;96.90;99733.03;6294601;28;20483;-81
2024/02/06 01:15:44;;;;;;;2.85;1.40;;;;;;;7.95;96.26;99724.88;6303330;28;20044;-80
2024/02/06 01:18:45;;;;;;;3.42;1.80;;;;;;;8.02;96.72;99731.44;6316047;28;20063;-81
2024/02/06 01:21:46;;;;;;;5.85;1.75;;;;;;;7.90;96.42;99722.56;6296193;28;20054;-84
2024/02/06 01:24:49;;;;;;;3.50;1.58;;;;;;;7.87;97.08;99723.56;6293324;28;20044;-84
2024/02/06 01:27:49;;;;;;;3.05;1.67;;;;;;;7.86;97.30;99724.50;6292469;28;20051;-80
2024/02/06 01:30:50;;;;;;;4.57;1.88;;;;;;;7.89;96.66;99713.09;6293566;28;20045;-81
2024/02/06 01:33:51;;;;;;;3.17;1.55;;;;;;;7.86;97.14;99726.25;6292285;28;20056;-81
2024/02/06 01:36:52;;;;;;;5.00;1.75;;;;;;;7.90;96.67;99727.75;6293701;28;20052;-81
2024/02/06 01:39:52;;;;;;;3.95;2.00;;;;;;;7.94;96.36;99718.03;6315748;28;20048;-82
2024/02/06 01:42:53;;;;;;;3.70;2.03;;;;;;;8.00;96.37;99717.69;6297122;28;20048;-80
2024/02/06 01:45:55;;;;;;;5.10;2.00;;;;;;;8.07;95.90;99716.41;6292103;28;20048;-81
2024/02/06 01:48:56;;;;;;;10.40;2.00;;;;;;;8.03;95.50;99718.38;6314086;28;20464;-80
2024/02/06 01:51:57;;;;;;;4.85;1.95;;;;;;;8.03;94.80;99722.69;6281449;28;20051;-82
2024/02/06 01:54:59;;;;;;;4.88;1.75;;;;;;;8.10;94.42;99718.03;6325250;28;20044;-80
2024/02/06 01:58:00;;;;;;;3.42;1.65;;;;;;;8.19;93.34;99714.91;6293365;28;20068;-81
2024/02/06 02:01:04;;;;;;;2.97;1.75;;;;;;;8.24;92.98;99710.28;6292327;28;20071;-81
2024/02/06 02:04:05;;;;;;;6.50;2.17;;;;;;;8.26;92.62;99704.06;6289080;28;20048;-81
2024/02/06 02:07:08;;;;;;;7.97;2.10;;;;;;;8.32;92.70;99707.22;6288818;28;20088;-81
2024/02/06 02:10:09;;;;;;;9.00;3.03;;;;;;;8.24;92.57;99700.72;6274004;28;20049;-81
2024/02/06 02:13:10;;;;;;;10.43;1.90;;;;;;;8.16;93.51;99705.53;6293453;28;20524;-81
2024/02/06 02:16:11;;;;;;;5.45;2.20;;;;;;;8.11;93.08;99686.72;6311072;28;20053;-81
2024/02/06 02:19:12;;;;;;;3.88;1.92;;;;;;;8.19;92.49;99696.69;6314801;28;20106;-81
2024/02/06 02:22:13;;;;;;;4.07;2.22;;;;;;;8.29;92.24;99705.66;6304648;28;20544;-81
2024/02/06 02:25:14;;;;;;;5.78;2.35;;;;;;;8.20;92.93;99701.00;6298379;28;20051;-81
2024/02/06 02:28:17;;;;;;;7.40;2.38;;;;;;;8.08;93.70;99698.16;6306081;28;20048;-86
2024/02/06 02:31:20;;;;;;;7.63;2.63;;;;;;;8.04;94.18;99683.66;6294281;28;20055;-84
2024/02/06 02:34:21;;;;;;;6.90;3.03;;;;;;;8.15;94.20;99688.22;6300953;28;20411;-84
2024/02/06 02:37:21;;;;;;;4.03;2.42;;;;;;;8.15;94.23;99690.84;6303727;28;20056;-86
2024/02/06 02:40:22;;;;;;;5.03;2.40;;;;;;;8.24;93.79;99694.69;6307454;28;20052;-86
2024/02/06 02:43:24;;;;;;;8.05;3.17;;;;;;;8.22;93.05;99681.78;6301040;28;20144;-84
2024/02/06 02:46:25;;;;;;;4.27;2.50;;;;;;;8.16;93.64;99676.09;6304124;28;20539;-84
2024/02/06 02:49:25;;;;;;;6.75;2.90;;;;;;;8.24;92.99;99677.31;6312331;28;20491;-84
2024/02/06 02:52:28;;;;;;;7.75;3.28;;;;;;;8.13;93.31;99671.06;6318804;28;20059;-87
2024/02/06 02:55:29;;;;;;;10.40;3.70;;;;;;;8.14;92.84;99664.97;6321416;28;20063;-85
2024/02/06 02:58:30;;;;;;;8.77;3.20;;;;;;;8.15;92.82;99670.03;6299749;28;20048;-83
2024/02/06 03:01:31;;;;;;;7.30;4.00;;;;;;;8.13;92.55;99660.66;6302484;28;20055;-86
2024/02/06 03:04:32;;;;;;;6.85;2.85;;;;;;;8.07;91.81;99654.91;6284216;28;20044;-81
2024/02/06 03:07:32;;;;;;;7.50;3.30;;;;;;;8.15;90.95;99654.44;6315013;28;20101;-81
2024/02/06 03:10:33;;;;;;;7.30;3.22;;;;;;;8.04;90.39;99649.88;6300298;28;20044;-79
2024/02/06 03:13:35;;;;;;;4.90;2.47;;;;;;;8.20;89.68;99660.22;6322368;28;20052;-80
2024/02/06 03:16:40;;;;;;;10.82;3.20;;;;;;;8.14;90.23;99663.19;6302535;28;20483;-79
2024/02/06 03:19:41;;;;;;;5.60;3.22;;;;;;;8.21;89.42;99656.69;6300888;28;20058;-78
2024/02/06 03:22:42;;;;;;;5.00;3.13;;;;;;;8.27;87.59;99664.13;6303258;28;20048;-80
2024/02/06 03:25:42;;;;;;;9.00;3.50;;;;;;;8.26;87.11;99672.88;6301656;28;20048;-78
2024/02/06 03:28:45;;;;;;;10.38;2.60;;;;;;;8.31;86.71;99666.59;6296554;28;20056;-80
2024/02/06 03:31:46;;;;;;;6.65;2.92;;;;;;;8.33;86.34;99668.16;6302821;28;20496;-80
2024/02/06 03:34:47;;;;;;;10.05;4.07;;;;;;;8.38;85.92;99680.88;6289920;28;20135;-80
2024/02/06 03:37:48;;;;;;;12.00;3.85;;;;;;;8.17;87.51;99676.00;6299102;28;20419;-85
2024/02/06 03:40:51;;;;;;;8.07;3.45;;;;;;;8.23;88.09;99682.59;6322200;28;20047;-85
2024/02/06 03:43:52;;;;;;;6.22;2.90;;;;;;;8.12;89.43;99690.19;6302376;28;20055;-78
2024/02/06 03:46:53;;;;;;;11.13;3.65;;;;;;;8.04;89.51;99699.25;6296713;28;20101;-84
2024/02/06 03:49:53;;;;;;;6.32;4.13;;;;;;;7.85;90.79;99691.63;6278777;28;20633;-84
2024/02/06 03:52:54;;;;;;;8.57;3.90;;;;;;;7.81;91.01;99694.50;6316375;28;20558;-85
2024/02/06 03:55:55;;;;;;;8.68;4.07;;;;;;;7.71;91.88;99701.13;6306529;28;20052;-86
2024/02/06 03:58:56;;;;;;;9.23;4.00;;;;;;;7.70;91.18;99699.44;6289025;28;20051;-80
2024/02/06 04:01:56;;;;;;;5.95;3.35;;;;;;;7.53;92.09;99693.41;6294690;28;20048;-80
2024/02/06 04:04:57;;;;;;;7.07;3.88;;;;;;;7.56;92.14;99693.25;6317043;28;20048;-80
2024/02/06 04:07:58;;;;;;;14.60;4.55;;;;;;;7.48;92.54;99690.22;6287477;28;20099;-80
2024/02/06 04:10:59;;;;;;;14.07;4.60;;;;;;;7.44;92.58;99697.34;6304224;28;20052;-80
2024/02/06 04:13:59;;;;;;;10.73;5.10;;;;;;;7.44;93.01;99704.28;6320260;28;20044;-80
2024/02/06 04:17:00;;;;;;;6.20;4.03;;;;;;;7.34;92.82;99695.31;6310626;28;20090;-79
2024/02/06 04:20:01;;;;;;;22.35;4.50;;;;;;;7.32;92.94;99689.38;6295306;28;20139;-79
2024/02/06 04:23:03;;;;;;;7.57;4.55;;;;;;;7.11;94.60;99692.19;6292766;28;20059;-86
2024/02/06 04:26:05;;;;;;;9.20;5.33;;;;;;;7.20;94.86;99698.63;6301710;28;20063;-86
2024/02/06 04:29:06;;;;;;;10.70;5.80;;;;;;;7.21;94.36;99698.56;6281825;28;20384;-85
2024/02/06 04:32:07;;;;;;;12.93;6.10;;;;;;;7.18;94.42;99690.09;6295069;28;20492;-80
2024/02/06 04:35:08;;;;;;;11.68;5.43;;;;;;;7.20;94.69;99701.22;6294194;28;20055;-85
2024/02/06 04:38:09;;;;;;;12.90;6.75;;;;;;;7.16;95.02;99697.94;6282918;28;20048;-81
2024/02/06 04:41:10;;;;;;;10.90;6.47;;;;;;;7.15;94.68;99691.09;6319386;28;20135;-85
2024/02/06 04:44:13;;;;;;;12.95;5.90;;;;;;;7.12;94.20;99686.06;6276125;28;20439;-85
2024/02/06 04:47:15;;;;;;;11.48;5.78;;;;;;;7.21;93.24;99680.41;6294352;28;20063;-85
2024/02/06 04:50:18;;;;;;;12.48;6.53;;;;;;;7.11;92.86;99692.19;6286736;28;20484;-81
2024/02/06 04:53:21;;;;;;;12.75;6.15;;;;;;;7.27;92.48;99687.03;6322774;28;20099;-85
2024/02/06 04:56:22;;;;;;;13.32;5.93;;;;;;;7.33;91.56;99696.22;6300252;28;20059;-85
2024/02/06 04:59:25;;;;;;;14.60;6.80;;;;;;;7.18;92.01;99683.13;6321892;28;20044;-80
2024/02/06 05:02:26;;;;;;;14.07;6.82;;;;;;;7.10;92.76;99677.50;6313444;28;20133;-80
2024/02/06 05:05:27;;;;;;;11.57;6.18;;;;;;;7.21;92.81;99683.00;6300609;28;20499;-84
2024/02/06 05:08:28;;;;;;;13.82;6.57;;;;;;;7.25;92.20;99686.28;6282825;28;20049;-80
2024/02/06 05:11:32;;;;;;;14.05;7.00;;;;;;;7.00;93.71;99682.38;6300702;28;20074;-81
2024/02/06 05:14:36;;;;;;;13.18;6.68;;;;;;;6.98;94.43;99675.56;6299416;28;20060;-85
2024/02/06 05:17:40;;;;;;;9.63;6.40;;;;;;;6.96;94.66;99667.03;6299283;28;20052;-86
2024/02/06 05:20:41;;;;;;;15.98;6.35;;;;;;;6.99;94.27;99664.28;6298392;28;20056;-81
2024/02/06 05:23:42;;;;;;;9.50;5.97;;;;;;;6.88;95.29;99675.22;6283780;28;20045;-81
2024/02/06 05:26:43;;;;;;;9.50;5.53;;;;;;;6.87;95.53;99668.34;6308388;28;20131;-79
2024/02/06 05:29:43;;;;;;;11.10;6.32;;;;;;;6.79;95.92;99666.13;6295522;28;20117;-86
2024/02/06 05:32:44;;;;;;;15.68;5.95;;;;;;;6.79;96.21;99667.91;6302887;28;20055;-85
2024/02/06 05:35:48;;;;;;;13.05;5.68;;;;;;;6.82;96.05;99663.41;6300466;28;20078;-84
2024/02/06 05:38:48;;;;;;;11.38;6.03;;;;;;;6.92;95.19;99660.31;6295057;28;20419;-80
2024/02/06 05:41:49;;;;;;;10.13;5.63;;;;;;;6.91;94.46;99659.50;6322880;28;20074;-80
2024/02/06 05:44:50;;;;;;;10.80;5.05;;;;;;;6.95;94.21;99658.41;6323916;28;20155;-80
2024/02/06 05:47:55;;;;;;;10.35;5.68;;;;;;;6.98;93.65;99666.06;6323140;28;20066;-83
2024/02/06 05:50:57;;;;;;;9.43;4.35;;;;;;;6.97;92.99;99663.53;6324261;28;20055;-83
2024/02/06 05:53:57;;;;;;;10.35;5.85;;;;;;;7.00;93.44;99669.41;6316328;28;20044;-79
2024/02/06 05:57:00;;;;;;;9.15;5.57;;;;;;;6.90;94.16;99654.38;6300683;28;20118;-82
2024/02/06 06:00:06;;;;;;;14.48;5.50;;;;;;;6.96;94.25;99652.31;6324446;28;20044;-81
2024/02/06 06:03:07;;;;;;;8.15;5.32;;;;;;;7.08;92.73;99661.19;6300271;28;20132;-84
2024/02/06 06:06:09;;;;;;;14.77;5.03;;;;;;;7.01;91.84;99647.72;6303294;28;20048;-81
2024/02/06 06:09:12;;;;;;;10.07;5.18;;;;;;;7.25;90.86;99653.38;6287369;28;20104;-81
2024/02/06 06:12:12;;;;;;;13.15;5.60;;;;;;;7.22;89.44;99639.72;6306171;28;20135;-84
2024/02/06 06:15:15;;;;;;;8.38;4.80;;;;;;;7.30;88.09;99636.72;6304422;28;20059;-87
2024/02/06 06:18:16;;;;;;;10.25;5.50;;;;;;;7.39;87.71;99647.44;6305782;28;20081;-88
2024/02/06 06:21:19;;;;;;;13.13;4.80;;;;;;;7.32;87.73;99645.25;6324386;28;20043;-79
2024/02/06 06:24:21;;;;;;;13.02;6.28;;;;;;;7.30;88.13;99641.91;6312572;28;20531;-86
2024/02/06 06:27:22;;;;;;;10.32;5.32;;;;;;;7.39;88.15;99652.63;6303501;28;20435;-81
2024/02/06 06:30:23;;;;;;;8.70;5.07;;;;;;;7.27;89.33;99655.88;6303486;28;20051;-81
2024/02/06 06:33:24;;;;;;;10.32;5.82;;;;;;;7.14;89.04;99632.31;6304380;28;20051;-88
2024/02/06 06:36:26;;;;;;;12.82;6.93;;;;;;;7.35;90.14;99658.91;6303922;28;20048;-84
2024/02/06 06:39:27;;;;;;;12.25;6.15;;;;;;;7.39;89.56;99651.78;6322178;28;20047;-81
2024/02/06 06:42:30;;;;;;;10.55;5.82;;;;;;;7.27;90.22;99650.69;6304617;28;20044;-87
2024/02/06 06:45:35;;;;;;;10.10;5.18;;;;;;;7.26;90.11;99664.56;6323305;28;20130;-85
2024/02/06 06:48:36;;;;;;;10.85;5.95;;;;;;;7.47;90.01;99665.16;6304650;28;20484;-85
2024/02/06 06:51:39;;;;;;;8.98;5.38;;;;;;;7.51;89.26;99666.69;6305107;28;20101;-86
2024/02/06 06:54:40;;;;;;;11.40;5.95;;;;;;;7.57;88.53;99673.31;6304770;28;20051;-85
2024/02/06 06:57:44;;;;;;;13.57;7.03;;;;;;;7.60;88.61;99666.19;6304935;28;20051;-85
2024/02/06 07:00:47;;;;;;;12.85;5.47;;;;;;;7.44;89.04;99660.16;6304626;28;20059;-80
2024/02/06 07:03:50;;;;;;;14.68;6.65;;;;;;;7.54;88.55;99671.72;6322724;28;20048;-80
2024/02/06 07:06:50;;;;;;;9.65;5.75;;;;;;;7.63;88.78;99662.59;6304358;28;20051;-86
2024/02/06 07:09:52;;;;;;;12.98;5.47;;;;;;;7.58;87.86;99656.81;6304468;28;20048;-89
2024/02/06 07:12:55;;;;;;;13.18;6.30;;;;;;;7.70;86.90;99661.34;6303835;28;20483;-80
2024/02/06 07:15:56;;;;;;;10.70;6.10;;;;;;;7.74;86.22;99668.03;6304082;28;20047;-80
2024/02/06 07:18:57;;;;;;;17.65;6.05;;;;;;;7.99;84.57;99664.03;6303991;28;20102;-80
2024/02/06 07:21:58;;;;;;;11.00;5.65;;;;;;;8.06;84.29;99650.63;6302518;28;20468;-81
2024/02/06 07:24:59;;;;;;;6.37;4.33;;;;;;;8.11;84.41;99655.53;6316665;28;20126;-82
2024/02/06 07:28:03;;;;;;;13.98;7.28;;;;;;;8.13;84.16;99653.69;6310351;28;20050;-84
2024/02/06 07:31:04;;;;;;;14.88;6.82;;;;;;;8.34;83.92;99661.19;6331681;28;20051;-82
2024/02/06 07:34:05;;;;;;;12.93;5.75;;;;;;;8.56;82.57;99661.66;6329330;28;20423;-82
2024/02/06 07:37:06;;;;;;;6.25;3.75;;;;;;;8.65;82.14;99665.50;6347282;28;20115;-82
2024/02/06 07:40:08;;;;;;;12.45;6.22;;;;;;;8.80;82.99;99651.56;6315862;28;20480;-82
2024/02/06 07:43:09;;;;;;;12.53;6.53;;;;;;;8.97;83.24;99655.72;6304254;28;20048;-81
2024/02/06 07:46:12;;;;;;;12.02;6.00;;;;;;;9.07;83.68;99658.63;6304140;28;20086;-82
2024/02/06 07:49:12;;;;;;;14.27;5.97;;;;;;;9.11;83.45;99648.88;6303631;28;20419;-82
2024/02/06 07:52:13;;;;;;;12.80;6.78;;;;;;;9.16;83.23;99655.47;6303949;28;20060;-82
2024/02/06 07:55:16;;;;;;;12.45;6.93;;;;;;;9.31;84.36;99652.81;6321459;28;20056;-83
2024/02/06 07:58:17;;;;;;;15.15;7.05;;;;;;;9.27;85.34;99658.22;6311709;28;20044;-82
2024/02/06 08:01:18;;;;;;;17.55;6.68;;;;;;;9.39;85.59;99655.78;6321844;28;20147;-84
2024/02/06 08:04:21;;;;;;;8.68;5.45;;;;;;;9.38;85.55;99660.16;6322108;28;20051;-81
2024/02/06 08:07:24;;;;;;;11.07;6.22;;;;;;;9.46;85.76;99649.28;6303448;28;20044;-81
2024/02/06 08:10:27;;;;;;;16.33;6.90;;;;;;;9.50;85.50;99648.16;6303537;28;20047;-81
2024/02/06 08:13:30;;;;;;;13.20;6.28;;;;;;;9.69;84.67;99653.03;6303511;28;20051;-83
2024/02/06 08:16:31;;;;;;;11.25;6.53;;;;;;;9.67;83.82;99647.06;6303364;28;20058;-81
2024/02/06 08:19:32;;;;;;;12.15;6.50;;;;;;;9.89;82.39;99656.97;6321090;28;20051;-81
2024/02/06 08:22:33;;;;;;;16.48;7.32;;;;;;;10.31;82.25;99644.69;6303695;28;20048;-82
2024/02/06 08:25:34;;;;;;;14.60;7.15;;;;;;;10.57;80.39;99668.22;6306718;28;20067;-80
2024/02/06 08:28:37;;;;;;;13.60;7.00;;;;;;;10.76;79.05;99655.56;6308546;28;20052;-81
2024/02/06 08:31:47;;;;;;;14.57;7.50;;;;;;;10.89;78.40;99639.91;6308585;28;20054;-81
2024/02/06 08:34:48;;;;;;;14.88;6.28;;;;;;;11.22;77.38;99655.03;6308449;28;20135;-83
2024/02/06 08:37:49;;;;;;;12.63;6.80;;;;;;;11.00;77.22;99658.28;6310037;28;20052;-82
2024/02/06 08:40:50;;;;;;;9.43;5.18;;;;;;;10.89;76.97;99647.75;6325303;28;20403;-81
2024/02/06 08:43:53;;;;;;;9.32;4.93;;;;;;;11.08;77.34;99656.00;6308685;28;20437;-82
2024/02/06 08:46:54;;;;;;;10.07;5.07;;;;;;;11.17;76.25;99651.06;6349883;28;20077;-84
2024/02/06 08:49:55;;;;;;;16.88;6.60;;;;;;;11.09;76.58;99652.41;6351285;28;20043;-81
2024/02/06 08:52:56;;;;;;;32.08;6.00;;;;;;;11.26;75.92;99646.03;6339247;28;20487;-86
2024/02/06 08:55:59;;;;;;;10.02;5.20;;;;;;;11.32;76.34;99657.81;6326467;28;20094;-90
2024/02/06 08:59:01;;;;;;;10.07;6.13;;;;;;;11.04;76.53;99641.47;6326928;28;20043;-86
2024/02/06 09:02:02;;;;;;;11.45;6.28;;;;;;;11.11;76.52;99643.66;6308320;28;20075;-82
2024/02/06 09:05:08;;;;;;;12.55;6.80;;;;;;;11.23;76.85;99656.69;6308570;28;20088;-81
2024/02/06 09:08:09;;;;;;;16.88;6.15;;;;;;;11.31;76.57;99656.16;6307673;28;20507;-89
2024/02/06 09:11:10;;;;;;;13.18;5.57;;;;;;;11.34;75.49;99652.50;6309261;28;20082;-88
2024/02/06 09:14:11;;;;;;;10.85;5.38;;;;;;;11.52;73.97;99652.97;6327886;28;20452;-88
2024/02/06 09:17:13;;;;;;;14.00;6.30;;;;;;;11.56;73.86;99657.03;6308400;28;20105;-88
2024/02/06 09:20:14;;;;;;;11.15;6.00;;;;;;;11.55;74.74;99652.75;6325180;28;20090;-90
2024/02/06 09:23:17;;;;;;;12.77;5.28;;;;;;;11.60;74.55;99653.25;6309357;28;20052;-90
2024/02/06 09:26:18;;;;;;;8.45;5.18;;;;;;;11.81;72.69;99654.31;6308537;28;20059;-87
2024/02/06 09:29:19;;;;;;;12.10;6.03;;;;;;;12.19;71.06;99655.09;6308533;28;20048;-86
2024/02/06 09:32:22;;;;;;;12.27;5.50;;;;;;;12.44;68.94;99647.09;6307796;28;20063;-87
2024/02/06 09:35:23;;;;;;;21.42;7.45;;;;;;;12.69;67.57;99650.47;6325261;28;20052;-81
2024/02/06 09:38:23;;;;;;;10.50;5.30;;;;;;;12.66;64.77;99651.56;6306470;28;20105;-81
2024/02/06 09:41:27;;;;;;;7.40;3.88;;;;;;;12.90;63.21;99664.53;6306845;28;20418;-87
2024/02/06 09:44:29;;;;;;;8.02;4.07;;;;;;;13.13;63.56;99661.91;6307721;28;20101;-87
2024/02/06 09:47:32;;;;;;;10.20;3.80;;;;;;;13.40;62.54;99665.97;6307588;28;20488;-88
2024/02/06 09:50:38;;;;;;;5.63;3.17;;;;;;;13.64;60.36;99658.78;6306682;28;20055;-88
2024/02/06 09:53:44;;;;;;;6.50;3.40;;;;;;;13.94;60.87;99649.41;6306718;28;20480;-88
2024/02/06 09:56:48;;;;;;;9.93;3.95;;;;;;;13.85;59.18;99643.09;6324459;28;20488;-81
2024/02/06 09:59:52;;;;;;;6.80;3.53;;;;;;;13.99;58.21;99642.00;6306337;28;20158;-88
2024/02/06 10:02:57;;;;;;;9.90;4.10;;;;;;;14.34;58.11;99642.69;6306823;28;20055;-87
2024/02/06 10:06:02;;;;;;;5.57;3.47;;;;;;;14.19;57.19;99629.03;6324926;28;20048;-86
2024/02/06 10:09:04;;;;;;;6.32;3.78;;;;;;;14.30;56.91;99626.34;6306137;28;20048;-86
2024/02/06 10:12:08;;;;;;;6.32;3.50;;;;;;;14.46;57.53;99620.66;6306094;28;20083;-83
2024/02/06 10:15:18;;;;;;;8.75;3.20;;;;;;;14.39;57.18;99620.34;6324235;28;20060;-80
2024/02/06 10:18:19;;;;;;;8.32;2.78;;;;;;;14.35;57.88;99604.97;6288584;28;20053;-83
2024/02/06 10:21:21;;;;;;;6.80;3.08;;;;;;;14.61;57.54;99613.31;6272554;28;20049;-82
2024/02/06 10:24:21;;;;;;;12.33;3.53;;;;;;;14.78;56.79;99614.47;6272563;28;20049;-81
2024/02/06 10:27:22;;;;;;;5.70;2.90;;;;;;;14.87;55.17;99601.41;6272453;28;20546;-83
2024/02/06 10:30:23;;;;;;;6.20;3.08;;;;;;;14.94;55.39;99601.69;6272325;28;20419;-85
2024/02/06 10:33:26;;;;;;;6.82;3.40;;;;;;;15.12;55.90;99604.53;6272513;28;20055;-83
2024/02/06 10:36:30;;;;;;;4.03;2.13;;;;;;;15.23;54.76;99595.72;6272568;28;20053;-82
2024/02/06 10:39:31;;;;;;;10.85;3.47;;;;;;;15.31;54.77;99590.59;6272164;28;20532;-84
2024/02/06 10:42:33;;;;;;;5.13;3.15;;;;;;;15.34;54.43;99600.88;6273432;28;20111;-84
2024/02/06 10:45:34;;;;;;;4.63;2.75;;;;;;;15.43;55.05;99591.31;6273429;28;20416;-83
2024/02/06 10:48:37;;;;;;;10.73;3.05;;;;;;;15.50;54.28;99589.81;6271151;28;20060;-83
2024/02/06 10:51:39;;;;;;;4.75;2.40;;;;;;;15.63;55.01;99587.75;6273447;28;20089;-87
2024/02/06 10:54:39;;;;;;;6.97;3.70;;;;;;;15.88;54.40;99583.78;6272644;28;20051;-83
2024/02/06 10:57:47;;;;;;;9.00;3.45;;;;;;;15.80;53.02;99575.75;6272407;28;20045;-82
2024/02/06 11:00:49;;;;;;;5.20;2.72;;;;;;;15.79;53.71;99584.59;6271897;28;20044;-82
2024/02/06 11:03:58;;;;;;;5.10;2.78;;;;;;;15.71;53.84;99574.75;6273608;28;20052;-85
2024/02/06 11:07:05;;;;;;;6.47;3.10;;;;;;;15.79;53.74;99573.25;6272384;28;20412;-81
2024/02/06 11:10:08;;;;;;;6.18;3.10;;;;;;;15.66;54.12;99565.59;6271878;28;20084;-84
2024/02/06 11:13:19;;;;;;;9.77;3.67;;;;;;;15.84;54.33;99577.13;6273444;28;20060;-87
2024/02/06 11:16:21;;;;;;;8.05;3.75;;;;;;;15.97;55.41;99579.47;6272216;28;20068;-88
2024/02/06 11:19:32;;;;;;;;;;;;;;;15.96;54.22;99583.09;6308371;28;20058;-87
2024/02/06 11:22:37;;;;;;;6.03;2.75;;;;;;;15.79;52.84;99578.50;6323659;28;19993;-86
2024/02/06 11:25:38;;;;;;;4.18;2.97;;;;;;;15.90;51.14;99570.50;6323758;28;20052;-90
2024/02/06 11:28:42;;;;;;;7.90;2.70;;;;;;;15.91;50.90;99574.75;6322501;28;20045;-82
2024/02/06 11:31:44;;;;;;;5.35;2.58;;;;;;;15.85;52.38;99567.44;6304945;28;20551;-84
2024/02/06 11:34:46;;;;;;;;;;;;;;;15.76;50.25;99577.00;6304684;28;20511;-84
2024/02/06 11:37:53;;;;;;;5.60;3.23;;;;;;;15.80;51.53;99567.03;6322441;28;19927;-83
2024/02/06 11:40:54;;;;;;;6.93;3.38;;;;;;;15.86;52.01;99569.94;6322126;28;20052;-80
2024/02/06 11:44:05;;;;;;;11.98;4.50;;;;;;;15.80;53.20;99562.59;6304313;28;20527;-85
2024/02/06 11:47:06;;;;;;;9.48;3.67;;;;;;;15.84;54.23;99563.16;6304348;28;20050;-84
2024/02/06 11:50:07;;;;;;;6.57;3.63;;;;;;;15.76;54.29;99571.72;6303984;28;20055;-83
2024/02/06 11:53:13;;;;;;;7.57;4.18;;;;;;;15.75;54.41;99571.84;6303801;28;20135;-86
2024/02/06 11:56:14;;;;;;;9.30;4.18;;;;;;;15.83;55.01;99564.09;6304523;28;20051;-88
2024/02/06 11:59:17;;;;;;;7.65;3.95;;;;;;;15.73;54.58;99558.88;6303898;28;20075;-82
2024/02/06 12:02:17;;;;;;;;;;;;;;;15.72;54.11;99557.19;6304482;28;20059;-83
2024/02/06 12:05:18;;;;;;;7.13;2.60;;;;;;;15.66;53.56;99566.44;6304656;28;20295;-82
2024/02/06 12:08:20;;;;;;;6.43;3.45;;;;;;;15.78;53.63;99563.72;6303747;28;20046;-83
2024/02/06 12:11:21;;;;;;;10.18;3.08;;;;;;;15.85;54.65;99544.56;6303383;28;20080;-82
2024/02/06 12:14:22;;;;;;;8.63;3.58;;;;;;;15.77;54.75;99544.44;6303317;28;20052;-85
2024/02/06 12:17:22;;;;;;;6.72;3.28;;;;;;;15.75;54.74;99532.41;6303349;28;20059;-85
2024/02/06 12:20:25;;;;;;;5.53;3.53;;;;;;;15.67;56.08;99514.69;6303488;28;20050;-84
2024/02/06 12:23:26;;;;;;;4.88;2.97;;;;;;;15.55;54.11;99526.31;6303611;28;20124;-83
2024/02/06 12:26:27;;;;;;;8.05;3.00;;;;;;;15.80;55.45;99509.16;6303231;28;20052;-81
2024/02/06 12:29:27;;;;;;;4.50;3.00;;;;;;;16.04;55.06;99513.94;6303407;28;20051;-84
2024/02/06 12:32:30;;;;;;;7.10;3.38;;;;;;;16.04;55.67;99509.53;6303316;28;20044;-83
2024/02/06 12:35:34;;;;;;;6.50;3.58;;;;;;;16.20;55.07;99494.94;6321736;28;20051;-86
2024/02/06 12:38:37;;;;;;;9.20;3.53;;;;;;;16.44;53.97;99513.69;6303202;28;20087;-86
2024/02/06 12:41:38;;;;;;;6.00;3.08;;;;;;;16.62;53.97;99518.22;6303299;28;20048;-84
2024/02/06 12:44:42;;;;;;;7.30;3.67;;;;;;;16.70;53.87;99513.06;6321223;28;20048;-84
2024/02/06 12:47:43;;;;;;;5.75;2.30;;;;;;;16.73;49.43;99513.56;6303423;28;20086;-83
2024/02/06 12:50:45;;;;;;;5.40;2.60;;;;;;;16.87;47.58;99509.66;6302998;28;20125;-84
2024/02/06 12:53:46;;;;;;;6.22;1.77;;;;;;;16.92;45.96;99491.63;6321019;28;20048;-88
2024/02/06 12:56:47;;;;;;;3.53;1.50;;;;;;;17.01;46.58;99507.50;6303163;28;20048;-89
2024/02/06 12:59:49;;;;;;;6.28;2.42;;;;;;;17.12;46.60;99499.38;6321148;28;20044;-85
2024/02/06 13:03:03;;;;;;;;;;;;;;;17.15;45.74;99500.88;6303895;28;20055;-87
2024/02/06 13:06:05;;;;;;;5.53;1.83;;;;;;;16.96;44.55;99489.47;6303293;28;20014;-87
2024/02/06 13:09:07;;;;;;;6.40;1.60;;;;;;;17.05;45.16;99498.34;6321425;28;20109;-89
2024/02/06 13:12:08;;;;;;;4.20;2.00;;;;;;;16.96;45.25;99491.28;6305054;28;20510;-83
2024/02/06 13:15:10;;;;;;;7.77;2.07;;;;;;;16.98;45.82;99491.97;6307741;28;20052;-84
2024/02/06 13:18:16;;;;;;;4.10;2.75;;;;;;;16.98;46.59;99491.97;6307008;28;20412;-84
2024/02/06 13:21:17;;;;;;;5.15;2.22;;;;;;;17.05;47.01;99496.50;6307540;28;20052;-89
2024/02/06 13:24:18;;;;;;;5.60;2.47;;;;;;;16.83;47.30;99487.22;6307163;28;20047;-82
2024/02/06 13:27:22;;;;;;;5.30;2.53;;;;;;;16.87;47.58;99490.38;6307529;28;20048;-84
2024/02/06 13:30:23;;;;;;;8.07;2.53;;;;;;;16.66;48.65;99488.81;6324978;28;20044;-87
2024/02/06 13:33:24;;;;;;;5.03;2.60;;;;;;;16.47;49.27;99489.72;6306482;28;20097;-83
2024/02/06 13:36:27;;;;;;;4.45;2.38;;;;;;;16.40;49.72;99483.38;6324651;28;20054;-87
2024/02/06 13:39:28;;;;;;;6.38;3.03;;;;;;;16.22;49.79;99478.03;6340458;28;20044;-82
2024/02/06 13:42:29;;;;;;;5.60;2.30;;;;;;;16.10;50.26;99487.06;6324676;28;20059;-82
2024/02/06 13:45:29;;;;;;;6.38;2.42;;;;;;;15.81;50.62;99464.28;6324484;28;20492;-81
2024/02/06 13:48:30;;;;;;;5.50;2.70;;;;;;;15.70;51.60;99465.25;6306729;28;20126;-85
2024/02/06 13:51:31;;;;;;;9.20;3.15;;;;;;;15.89;51.61;99461.78;6306344;28;20079;-83
2024/02/06 13:54:32;;;;;;;6.35;3.13;;;;;;;16.25;51.83;99454.06;6306575;28;20074;-83
2024/02/06 13:57:33;;;;;;;6.78;3.13;;;;;;;16.48;51.17;99453.69;6306319;28;20249;-83
2024/02/06 14:00:34;;;;;;;9.98;4.88;;;;;;;16.41;51.30;99437.66;6324199;28;20052;-82
2024/02/06 14:03:36;;;;;;;16.25;7.03;;;;;;;16.51;51.37;99448.09;6306323;28;20052;-81
2024/02/06 14:06:40;;;;;;;10.00;5.47;;;;;;;16.46;50.19;99440.66;6306456;28;20052;-83
2024/02/06 14:09:40;;;;;;;20.35;7.30;;;;;;;16.19;48.71;99430.13;6306139;28;20051;-82
2024/02/06 14:12:41;;;;;;;13.15;6.80;;;;;;;16.42;49.46;99426.13;6305887;28;20052;-83
2024/02/06 14:15:42;;;;;;;14.35;6.68;;;;;;;16.19;48.49;99430.13;6324111;28;20055;-83
2024/02/06 14:18:43;;;;;;;14.45;5.43;;;;;;;16.27;48.41;99456.56;6305546;28;20092;-84
2024/02/06 14:21:46;;;;;;;10.43;5.30;;;;;;;16.19;48.00;99462.53;6323714;28;20056;-85